createdAt,value
2022-11-02T00:01:26.451Z,100.00
2022-11-02T00:03:54.677Z,100.00
2022-11-02T00:06:22.806Z,100.00
2022-11-02T00:08:50.965Z,100.00
2022-11-02T00:11:19.081Z,100.00
2022-11-02T00:13:47.240Z,100.00
2022-11-02T00:16:17.517Z,100.00
2022-11-02T00:18:48.937Z,100.00
2022-11-02T00:21:17.675Z,100.00
2022-11-02T00:23:45.922Z,100.00
2022-11-02T00:26:14.015Z,100.00
2022-11-02T00:28:42.156Z,100.00
2022-11-02T00:31:10.232Z,100.00
2022-11-02T00:33:39.751Z,100.00
2022-11-02T00:36:08.420Z,100.00
2022-11-02T00:38:36.465Z,100.00
2022-11-02T00:41:04.522Z,100.00
2022-11-02T00:43:32.704Z,100.00
2022-11-02T00:46:01.506Z,100.00
2022-11-02T00:48:29.716Z,100.00
2022-11-02T00:50:59.140Z,100.00
2022-11-02T00:53:27.215Z,100.00
2022-11-02T00:55:55.285Z,100.00
2022-11-02T00:58:23.400Z,100.00
2022-11-02T01:00:51.504Z,100.00
2022-11-02T01:03:19.620Z,100.00
2022-11-02T01:05:47.797Z,100.00
2022-11-02T01:08:17.274Z,100.00
2022-11-02T01:10:48.142Z,100.00
2022-11-02T01:13:16.585Z,100.00
2022-11-02T01:15:44.706Z,100.00
2022-11-02T01:18:12.862Z,100.00
2022-11-02T01:20:41.028Z,100.00
2022-11-02T01:23:09.120Z,100.00
2022-11-02T01:25:38.589Z,100.00
2022-11-02T01:28:06.921Z,100.00
2022-11-02T01:30:35.203Z,100.00
2022-11-02T01:33:03.317Z,100.00
2022-11-02T01:35:31.407Z,100.00
2022-11-02T01:37:59.537Z,100.00
2022-11-02T01:40:27.577Z,100.00
2022-11-02T01:42:57.052Z,100.00
2022-11-02T01:45:25.226Z,100.00
2022-11-02T01:47:53.263Z,100.00
2022-11-02T01:50:23.247Z,100.00
2022-11-02T01:52:51.343Z,100.00
2022-11-02T01:55:21.189Z,100.00
2022-11-02T01:57:53.143Z,100.00
2022-11-02T02:00:23.136Z,100.00
2022-11-02T02:02:53.622Z,100.00
2022-11-02T02:05:23.838Z,100.00
2022-11-02T02:07:52.253Z,100.00
2022-11-02T02:10:20.560Z,100.00
2022-11-02T02:12:49.324Z,100.00
2022-11-02T02:15:17.560Z,100.00
2022-11-02T02:17:50.533Z,100.00
2022-11-02T02:20:27.901Z,100.00
2022-11-02T02:23:23.248Z,100.00
2022-11-02T02:26:05.202Z,100.00
2022-11-02T02:28:40.330Z,100.00
2022-11-02T02:31:13.122Z,100.00
2022-11-02T02:33:46.133Z,100.00
2022-11-02T02:36:19.582Z,100.00
2022-11-02T02:38:50.079Z,100.00
2022-11-02T02:41:22.212Z,100.00
2022-11-02T02:43:53.558Z,100.00
2022-11-02T02:46:24.209Z,100.00
2022-11-02T02:48:54.266Z,100.00
2022-11-02T02:51:26.047Z,100.00
2022-11-02T02:54:00.982Z,100.00
2022-11-02T02:56:31.776Z,100.00
2022-11-02T02:59:03.441Z,100.00
2022-11-02T03:01:32.325Z,100.00
2022-11-02T03:04:00.394Z,100.00
2022-11-02T03:06:32.235Z,100.00
2022-11-02T03:09:07.510Z,100.00
2022-11-02T03:11:36.255Z,100.00
2022-11-02T03:14:15.607Z,100.00
2022-11-02T03:19:34.115Z,100.00
2022-11-02T03:22:05.788Z,100.00
2022-11-02T03:24:37.841Z,100.00
2022-11-02T03:27:13.859Z,100.00
2022-11-02T03:29:46.016Z,100.00
2022-11-02T03:32:20.289Z,100.00
2022-11-02T03:34:50.311Z,100.00
2022-11-02T03:37:21.579Z,100.00
2022-11-02T03:39:51.630Z,100.00
2022-11-02T03:42:22.446Z,100.00
2022-11-02T03:44:56.579Z,100.00
2022-11-02T03:47:26.077Z,100.00
2022-11-02T03:49:55.805Z,100.00
2022-11-02T03:52:27.764Z,100.00
2022-11-02T03:55:01.536Z,100.00
2022-11-02T03:57:35.149Z,100.00
2022-11-02T04:00:13.736Z,100.00
2022-11-02T04:02:43.675Z,100.00
2022-11-02T04:05:11.916Z,100.00
2022-11-02T04:07:59.734Z,100.00
2022-11-02T04:10:27.996Z,100.00
2022-11-02T04:13:13.450Z,100.00
2022-11-02T04:15:42.966Z,100.00
2022-11-02T04:18:28.460Z,100.00
2022-11-02T04:20:56.608Z,100.00
2022-11-02T04:23:41.925Z,100.00
2022-11-02T04:26:10.124Z,100.00
2022-11-02T04:28:38.158Z,100.00
2022-11-02T04:31:07.859Z,100.00
2022-11-02T04:33:35.196Z,100.00
2022-11-02T04:36:04.014Z,100.00
2022-11-02T04:38:43.219Z,100.00
2022-11-02T04:41:29.938Z,100.00
2022-11-02T04:43:58.135Z,100.00
2022-11-02T04:46:28.760Z,100.00
2022-11-02T04:48:57.148Z,100.00
2022-11-02T04:51:26.868Z,100.00
2022-11-02T04:53:55.746Z,100.00
2022-11-02T04:56:24.185Z,100.00
2022-11-02T04:58:53.353Z,100.00
2022-11-02T05:01:22.198Z,100.00
2022-11-02T05:03:52.558Z,100.00
2022-11-02T05:06:22.462Z,100.00
2022-11-02T05:08:50.743Z,100.00
2022-11-02T05:11:19.303Z,100.00
2022-11-02T05:13:47.573Z,100.00
2022-11-02T05:16:17.991Z,100.00
2022-11-02T05:18:46.040Z,100.00
2022-11-02T05:21:15.652Z,100.00
2022-11-02T05:23:43.639Z,100.00
2022-11-02T05:26:12.687Z,100.00
2022-11-02T05:28:40.925Z,100.00
2022-11-02T05:31:08.920Z,100.00
2022-11-02T05:33:37.062Z,100.00
2022-11-02T05:36:05.625Z,100.00
2022-11-02T05:38:35.216Z,100.00
2022-11-02T05:41:03.343Z,100.00
2022-11-02T05:43:31.785Z,100.00
2022-11-02T05:46:02.769Z,100.00
2022-11-02T05:48:33.264Z,100.00
2022-11-02T05:51:02.727Z,100.00
2022-11-02T05:53:32.703Z,100.00
2022-11-02T05:56:03.181Z,100.00
2022-11-02T05:58:31.977Z,100.00
2022-11-02T06:01:00.677Z,100.00
2022-11-02T06:03:29.468Z,100.00
2022-11-02T06:05:58.512Z,100.00
2022-11-02T06:08:26.901Z,100.00
2022-11-02T06:10:55.355Z,100.00
2022-11-02T06:13:24.745Z,100.00
2022-11-02T06:15:53.164Z,100.00
2022-11-02T06:18:21.241Z,100.00
2022-11-02T06:20:49.475Z,100.00
2022-11-02T06:23:18.319Z,100.00
2022-11-02T06:25:51.970Z,100.00
2022-11-02T06:28:22.514Z,100.00
2022-11-02T06:30:53.324Z,100.00
2022-11-02T06:33:22.924Z,100.00
2022-11-02T06:35:54.150Z,100.00
2022-11-02T06:38:22.425Z,100.00
2022-11-02T06:40:57.685Z,100.00
2022-11-02T06:43:27.559Z,100.00
2022-11-02T06:45:58.313Z,100.00
2022-11-02T06:48:34.395Z,100.00
2022-11-02T06:51:03.071Z,100.00
2022-11-02T06:53:31.082Z,100.00
2022-11-02T06:56:00.465Z,100.00
2022-11-02T06:58:29.048Z,100.00
2022-11-02T07:01:03.141Z,100.00
2022-11-02T07:03:32.657Z,100.00
2022-11-02T07:06:02.513Z,100.00
2022-11-02T07:08:33.393Z,100.00
2022-11-02T07:11:05.635Z,100.00
2022-11-02T07:13:34.778Z,100.00
2022-11-02T07:16:04.745Z,100.00
2022-11-02T07:18:32.878Z,100.00
2022-11-02T07:21:01.784Z,100.00
2022-11-02T07:23:30.300Z,100.00
2022-11-02T07:25:58.938Z,100.00
2022-11-02T07:28:28.189Z,100.00
2022-11-02T07:30:57.794Z,100.00
2022-11-02T07:33:27.802Z,100.00
2022-11-02T07:35:56.114Z,100.00
2022-11-02T07:38:24.778Z,100.00
2022-11-02T07:40:53.191Z,100.00
2022-11-02T07:43:21.751Z,100.00
2022-11-02T07:45:49.946Z,100.00
2022-11-02T07:48:18.114Z,100.00
2022-11-02T07:50:51.617Z,100.00
2022-11-02T07:53:22.901Z,100.00
2022-11-02T07:55:52.412Z,100.00
2022-11-02T07:58:23.430Z,100.00
2022-11-02T08:00:57.236Z,100.00
2022-11-02T08:03:30.552Z,100.00
2022-11-02T08:06:07.728Z,100.00
2022-11-02T08:08:39.991Z,100.00
2022-11-02T08:11:11.389Z,100.00
2022-11-02T08:13:41.441Z,94.82
2022-11-02T08:16:12.854Z,82.77
2022-11-02T08:18:42.774Z,80.61
2022-11-02T08:21:14.358Z,73.36
2022-11-02T08:23:42.845Z,74.45
2022-11-02T08:26:11.825Z,75.40
2022-11-02T08:28:41.325Z,73.51
2022-11-02T08:31:13.581Z,72.75
2022-11-02T08:33:41.702Z,71.37
2022-11-02T08:36:10.622Z,66.42
2022-11-02T08:38:40.553Z,60.91
2022-11-02T08:41:08.585Z,66.49
2022-11-02T08:43:36.659Z,61.35
2022-11-02T08:46:20.431Z,60.73
2022-11-02T08:48:48.569Z,57.28
2022-11-02T08:51:17.008Z,57.28
2022-11-02T08:53:51.432Z,55.69
2022-11-02T08:56:20.102Z,53.28
2022-11-02T08:58:48.375Z,51.32
2022-11-02T09:01:23.210Z,50.83
2022-11-02T09:03:51.611Z,50.17
2022-11-02T09:06:19.823Z,50.30
2022-11-02T09:08:52.720Z,48.19
2022-11-02T09:11:25.602Z,49.62
2022-11-02T09:13:57.169Z,52.13
2022-11-02T09:16:26.915Z,49.42
2022-11-02T09:18:56.183Z,45.71
2022-11-02T09:21:25.411Z,50.05
2022-11-02T09:23:56.175Z,47.86
2022-11-02T09:26:25.706Z,44.05
2022-11-02T09:28:54.488Z,41.21
2022-11-02T09:31:22.547Z,41.72
2022-11-02T09:33:50.841Z,42.91
2022-11-02T09:36:19.065Z,45.29
2022-11-02T09:38:47.223Z,43.67
2022-11-02T09:41:21.759Z,43.46
2022-11-02T09:43:54.919Z,43.19
2022-11-02T09:46:26.317Z,43.71
2022-11-02T09:48:56.098Z,45.88
2022-11-02T09:51:27.052Z,45.08
2022-11-02T09:54:00.678Z,45.03
2022-11-02T09:56:31.668Z,42.80
2022-11-02T09:59:02.169Z,45.06
2022-11-02T10:01:37.261Z,47.00
2022-11-02T10:04:17.809Z,44.64
2022-11-02T10:06:53.416Z,46.59
2022-11-02T10:09:28.099Z,46.97
2022-11-02T10:12:02.226Z,42.38
2022-11-02T10:14:34.254Z,41.55
2022-11-02T10:17:10.121Z,42.96
2022-11-02T10:19:42.562Z,43.61
2022-11-02T10:22:13.518Z,41.95
2022-11-02T10:24:44.735Z,40.70
2022-11-02T10:27:20.512Z,41.15
2022-11-02T10:29:53.541Z,40.19
2022-11-02T10:32:21.650Z,37.99
2022-11-02T10:34:58.673Z,38.00
2022-11-02T10:37:45.763Z,34.89
2022-11-02T10:40:20.586Z,35.29
2022-11-02T10:43:00.483Z,36.24
2022-11-02T10:45:45.155Z,35.92
2022-11-02T10:48:21.978Z,34.05
2022-11-02T10:50:54.961Z,35.18
2022-11-02T10:56:17.395Z,37.31
2022-11-02T10:58:57.705Z,35.64
2022-11-02T11:01:26.642Z,36.53
2022-11-02T11:03:57.842Z,35.73
2022-11-02T11:06:29.704Z,36.52
2022-11-02T11:09:01.757Z,36.35
2022-11-02T11:11:32.833Z,36.79
2022-11-02T11:16:54.287Z,44.50
2022-11-02T11:22:22.802Z,47.54
2022-11-02T11:24:51.025Z,47.75
2022-11-02T11:27:20.657Z,47.95
2022-11-02T11:29:55.778Z,48.65
2022-11-02T11:32:30.167Z,48.22
2022-11-02T11:35:01.336Z,47.46
2022-11-02T11:37:29.601Z,43.18
2022-11-02T11:40:00.692Z,39.88
2022-11-02T11:42:31.469Z,39.66
2022-11-02T11:45:04.870Z,43.46
2022-11-02T11:47:36.880Z,43.00
2022-11-02T11:50:12.633Z,46.75
2022-11-02T11:53:10.790Z,50.09
2022-11-02T11:55:47.687Z,48.71
2022-11-02T11:58:18.014Z,48.75
2022-11-02T12:00:48.198Z,46.08
2022-11-02T12:03:16.939Z,43.43
2022-11-02T12:05:56.228Z,43.67
2022-11-02T12:08:35.513Z,41.50
2022-11-02T12:11:22.265Z,41.62
2022-11-02T12:14:23.005Z,42.33
2022-11-02T12:17:07.666Z,40.68
2022-11-02T12:19:47.702Z,40.33
2022-11-02T12:22:25.291Z,43.00
2022-11-02T12:25:19.423Z,45.10
2022-11-02T12:27:54.512Z,47.51
2022-11-02T12:30:24.906Z,45.54
2022-11-02T12:33:29.478Z,40.71
2022-11-02T12:36:06.390Z,37.97
2022-11-02T12:39:07.839Z,37.78
2022-11-02T12:41:53.762Z,39.27
2022-11-02T12:44:48.938Z,43.62
2022-11-02T12:47:29.820Z,45.30
2022-11-02T12:50:08.631Z,43.42
2022-11-02T12:52:48.762Z,41.46
2022-11-02T12:55:19.317Z,41.86
2022-11-02T12:57:48.229Z,40.70
2022-11-02T13:00:21.224Z,40.54
2022-11-02T13:02:57.819Z,39.21
2022-11-02T13:05:31.328Z,36.38
2022-11-02T13:08:06.684Z,36.32
2022-11-02T13:10:37.609Z,38.31
2022-11-02T13:13:06.240Z,42.23
2022-11-02T13:15:36.406Z,41.97
2022-11-02T13:18:08.473Z,40.39
2022-11-02T13:20:44.292Z,38.91
2022-11-02T13:23:18.634Z,38.93
2022-11-02T13:25:50.125Z,39.46
2022-11-02T13:28:21.318Z,38.68
2022-11-02T13:30:49.768Z,39.35
2022-11-02T13:33:21.108Z,38.06
2022-11-02T13:35:52.949Z,38.60
2022-11-02T13:38:28.596Z,39.49
2022-11-02T13:41:06.688Z,42.46
2022-11-02T13:44:03.320Z,44.90
2022-11-02T13:46:43.859Z,49.80
2022-11-02T13:49:15.549Z,52.27
2022-11-02T13:51:48.020Z,53.44
2022-11-02T13:54:20.266Z,54.73
2022-11-02T13:56:54.484Z,55.06
2022-11-02T13:59:27.431Z,56.66
2022-11-02T14:02:01.076Z,59.53
2022-11-02T14:04:30.881Z,61.12
2022-11-02T14:07:01.938Z,61.19
2022-11-02T14:09:32.102Z,62.08
2022-11-02T14:12:30.464Z,62.17
2022-11-02T14:15:47.254Z,63.09
2022-11-02T14:18:32.159Z,63.15
2022-11-02T14:21:00.448Z,63.37
2022-11-02T14:23:38.332Z,63.83
2022-11-02T14:26:06.763Z,65.12
2022-11-02T14:28:46.119Z,65.44
2022-11-02T14:31:40.958Z,66.74
2022-11-02T14:34:37.179Z,67.61
2022-11-02T14:37:22.347Z,68.16
2022-11-02T14:39:54.955Z,69.69
2022-11-02T14:42:36.757Z,70.37
2022-11-02T14:45:36.740Z,71.19
2022-11-02T14:48:06.717Z,71.46
2022-11-02T14:50:35.271Z,72.39
2022-11-02T14:53:07.898Z,72.42
2022-11-02T14:55:39.182Z,72.96
2022-11-02T14:58:11.201Z,74.03
2022-11-02T15:00:40.596Z,73.29
2022-11-02T15:03:15.814Z,73.33
2022-11-02T15:05:45.644Z,73.53
2022-11-02T15:08:24.643Z,73.79
2022-11-02T15:10:54.138Z,74.35
2022-11-02T15:13:40.273Z,74.19
2022-11-02T15:16:24.830Z,74.69
2022-11-02T15:18:55.561Z,76.60
2022-11-02T15:21:30.477Z,76.39
2022-11-02T15:24:10.997Z,77.95
2022-11-02T15:26:48.713Z,78.41
2022-11-02T15:29:23.701Z,78.38
2022-11-02T15:31:55.871Z,78.76
2022-11-02T15:34:29.658Z,79.12
2022-11-02T15:36:59.118Z,80.40
2022-11-02T15:39:27.335Z,80.44
2022-11-02T15:42:03.853Z,80.94
2022-11-02T15:45:14.162Z,82.18
2022-11-02T15:47:58.008Z,83.25
2022-11-02T15:50:35.254Z,83.82
2022-11-02T15:53:23.250Z,84.25
2022-11-02T15:56:02.411Z,84.55
2022-11-02T15:58:40.899Z,84.93
2022-11-02T16:01:28.516Z,84.84
2022-11-02T16:03:59.788Z,85.76
2022-11-02T16:06:30.063Z,86.54
2022-11-02T16:08:59.130Z,87.34
2022-11-02T16:11:27.664Z,88.19
2022-11-02T16:14:17.225Z,88.57
2022-11-02T16:16:48.569Z,88.74
2022-11-02T16:19:21.382Z,89.41
2022-11-02T16:22:01.092Z,89.48
2022-11-02T16:24:29.880Z,90.18
2022-11-02T16:26:58.175Z,90.63
2022-11-02T16:29:31.861Z,90.67
2022-11-02T16:32:00.097Z,91.16
2022-11-02T16:34:32.461Z,91.82
2022-11-02T16:37:07.537Z,91.68
2022-11-02T16:39:42.002Z,92.30
2022-11-02T16:42:15.321Z,92.40
2022-11-02T16:47:23.085Z,93.03
2022-11-02T16:50:00.534Z,92.99
2022-11-02T16:52:31.981Z,93.82
2022-11-02T16:55:00.348Z,95.22
2022-11-02T16:57:30.366Z,96.13
2022-11-02T17:00:01.211Z,95.85
2022-11-02T17:02:36.243Z,95.30
2022-11-02T17:05:07.195Z,95.94
2022-11-02T17:07:37.432Z,95.73
2022-11-02T17:10:07.374Z,96.05
2022-11-02T17:12:36.678Z,95.49
2022-11-02T17:15:15.734Z,95.65
2022-11-02T17:17:43.855Z,95.35
2022-11-02T17:20:20.860Z,94.64
2022-11-02T17:22:55.152Z,95.29
2022-11-02T17:25:24.894Z,95.28
2022-11-02T17:27:54.410Z,95.30
2022-11-02T17:30:43.730Z,95.95
2022-11-02T17:33:17.862Z,96.53
2022-11-02T17:35:46.685Z,96.36
2022-11-02T17:38:14.809Z,96.54
2022-11-02T17:40:43.139Z,98.08
2022-11-02T17:43:10.263Z,98.40
2022-11-02T17:45:39.285Z,99.52
2022-11-02T17:48:10.942Z,99.79
2022-11-02T17:50:40.895Z,99.50
2022-11-02T17:53:13.186Z,99.81
2022-11-02T17:55:41.312Z,99.36
2022-11-02T17:58:09.565Z,99.71
2022-11-02T18:00:38.190Z,98.90
2022-11-02T18:03:11.180Z,99.68
2022-11-02T18:05:41.637Z,100.00
2022-11-02T18:08:13.726Z,100.00
2022-11-02T18:10:43.468Z,99.84
2022-11-02T18:13:13.215Z,100.00
2022-11-02T18:15:42.799Z,100.00
2022-11-02T18:18:13.033Z,100.00
2022-11-02T18:20:46.081Z,100.00
2022-11-02T18:23:20.690Z,100.00
2022-11-02T18:25:50.990Z,100.00
2022-11-02T18:28:22.079Z,100.00
2022-11-02T18:30:51.209Z,100.00
2022-11-02T18:33:26.094Z,100.00
2022-11-02T18:35:54.222Z,100.00
2022-11-02T18:38:22.316Z,100.00
2022-11-02T18:40:50.419Z,100.00
2022-11-02T18:43:18.767Z,100.00
2022-11-02T18:45:47.529Z,100.00
2022-11-02T18:48:15.846Z,100.00
2022-11-02T18:50:45.286Z,100.00
2022-11-02T18:53:14.292Z,100.00
2022-11-02T18:55:42.787Z,100.00
2022-11-02T18:58:15.591Z,100.00
2022-11-02T19:00:43.797Z,100.00
2022-11-02T19:03:12.674Z,100.00
2022-11-02T19:08:45.198Z,100.00
2022-11-02T19:11:13.444Z,100.00
2022-11-02T19:13:41.701Z,100.00
2022-11-02T19:16:09.800Z,100.00
2022-11-02T19:18:37.959Z,100.00
2022-11-02T19:21:06.462Z,100.00
2022-11-02T19:23:35.899Z,100.00
2022-11-02T19:26:03.957Z,100.00
2022-11-02T19:28:32.103Z,100.00
2022-11-02T19:31:00.215Z,100.00
2022-11-02T19:33:29.705Z,100.00
2022-11-02T19:35:58.300Z,100.00
2022-11-02T19:38:26.536Z,100.00
2022-11-02T19:41:05.861Z,100.00
2022-11-02T19:43:34.519Z,100.00
2022-11-02T19:46:03.005Z,100.00
2022-11-02T19:48:32.076Z,100.00
2022-11-02T19:51:07.319Z,100.00
2022-11-02T19:53:35.799Z,100.00
2022-11-02T19:56:06.424Z,100.00
2022-11-02T19:58:34.555Z,100.00
2022-11-02T20:01:07.347Z,100.00
2022-11-02T20:03:36.209Z,100.00
2022-11-02T20:06:06.062Z,100.00
2022-11-02T20:08:34.396Z,100.00
2022-11-02T20:11:09.575Z,100.00
2022-11-02T20:13:39.859Z,100.00
2022-11-02T20:16:09.730Z,100.00
2022-11-02T20:18:39.073Z,100.00
2022-11-02T20:21:08.097Z,100.00
2022-11-02T20:23:37.335Z,100.00
2022-11-02T20:26:09.003Z,100.00
2022-11-02T20:28:38.717Z,100.00
2022-11-02T20:31:08.547Z,100.00
2022-11-02T20:33:37.279Z,100.00
2022-11-02T20:36:06.136Z,100.00
2022-11-02T20:38:34.319Z,100.00
2022-11-02T20:41:08.049Z,100.00
2022-11-02T20:43:36.847Z,100.00
2022-11-02T20:46:31.323Z,100.00
2022-11-02T20:48:57.184Z,100.00
2022-11-02T20:51:25.864Z,100.00
2022-11-02T20:53:54.006Z,100.00
2022-11-02T20:56:24.822Z,100.00
2022-11-02T20:58:55.634Z,100.00
2022-11-02T21:01:24.153Z,100.00
2022-11-02T21:03:52.356Z,100.00
2022-11-02T21:06:20.416Z,100.00
2022-11-02T21:08:48.481Z,100.00
2022-11-02T21:11:33.797Z,100.00
2022-11-02T21:14:03.220Z,100.00
2022-11-02T21:16:31.218Z,100.00
2022-11-02T21:18:59.285Z,100.00
2022-11-02T21:21:27.282Z,100.00
2022-11-02T21:23:57.044Z,100.00
2022-11-02T21:26:25.076Z,100.00
2022-11-02T21:28:53.065Z,100.00
2022-11-02T21:31:22.945Z,100.00
2022-11-02T21:33:51.149Z,100.00
2022-11-02T21:36:19.980Z,100.00
2022-11-02T21:38:48.603Z,100.00
2022-11-02T21:41:19.624Z,100.00
2022-11-02T21:43:47.678Z,100.00
2022-11-02T21:46:15.786Z,100.00
2022-11-02T21:48:45.289Z,100.00
2022-11-02T21:51:14.848Z,100.00
2022-11-02T21:53:44.240Z,100.00
2022-11-02T21:56:14.547Z,100.00
2022-11-02T21:58:45.835Z,100.00
2022-11-02T22:01:33.463Z,100.00
2022-11-02T22:04:03.506Z,100.00
2022-11-02T22:06:32.035Z,100.00
2022-11-02T22:09:00.781Z,100.00
2022-11-02T22:11:29.248Z,100.00
2022-11-02T22:13:58.952Z,100.00
2022-11-02T22:16:28.654Z,100.00
2022-11-02T22:18:57.781Z,100.00
2022-11-02T22:21:28.572Z,100.00
2022-11-02T22:23:56.677Z,100.00
2022-11-02T22:26:25.786Z,100.00
2022-11-02T22:28:54.512Z,100.00
2022-11-02T22:31:24.445Z,100.00
2022-11-02T22:33:53.566Z,100.00
2022-11-02T22:36:23.592Z,100.00
2022-11-02T22:38:53.824Z,100.00
2022-11-02T22:41:24.761Z,100.00
2022-11-02T22:43:55.864Z,100.00
2022-11-02T22:46:25.169Z,100.00
2022-11-02T22:48:54.329Z,100.00
2022-11-02T22:51:23.432Z,100.00
2022-11-02T22:53:53.302Z,100.00
2022-11-02T22:56:22.993Z,100.00
2022-11-02T22:58:51.555Z,100.00
2022-11-02T23:01:21.899Z,100.00
2022-11-02T23:03:50.573Z,100.00
2022-11-02T23:06:21.220Z,100.00
2022-11-02T23:08:50.440Z,100.00
2022-11-02T23:11:23.794Z,100.00
2022-11-02T23:13:55.402Z,100.00
2022-11-02T23:16:24.911Z,100.00
2022-11-02T23:19:18.983Z,100.00
2022-11-02T23:22:09.041Z,100.00
2022-11-02T23:24:54.339Z,100.00
2022-11-02T23:27:23.990Z,100.00
2022-11-02T23:30:09.551Z,100.00
2022-11-02T23:32:38.029Z,100.00
2022-11-02T23:35:24.350Z,100.00
2022-11-02T23:38:02.398Z,100.00
2022-11-02T23:40:30.589Z,100.00
2022-11-02T23:43:00.012Z,100.00
2022-11-02T23:45:28.139Z,100.00
2022-11-02T23:48:00.852Z,100.00
2022-11-02T23:50:49.333Z,100.00
2022-11-02T23:53:36.105Z,100.00
2022-11-02T23:56:21.687Z,100.00
2022-11-02T23:59:06.478Z,100.00
